sensor_id;sensor_type;location;lat;lon;timestamp;temperature;humidity
4090;DHT22;2059;48.538;12.146;2023-04-25T00:03:06;9.40;97.70
4090;DHT22;2059;48.538;12.146;2023-04-25T00:08:11;9.30;98.10
4090;DHT22;2059;48.538;12.146;2023-04-25T00:13:12;9.30;98.00
4090;DHT22;2059;48.538;12.146;2023-04-25T00:18:15;9.40;98.00
4090;DHT22;2059;48.538;12.146;2023-04-25T00:23:19;9.30;97.90
4090;DHT22;2059;48.538;12.146;2023-04-25T00:28:21;9.10;97.90
4090;DHT22;2059;48.538;12.146;2023-04-25T00:33:23;9.00;98.30
4090;DHT22;2059;48.538;12.146;2023-04-25T00:38:26;9.10;97.70
4090;DHT22;2059;48.538;12.146;2023-04-25T00:43:28;9.20;97.90
4090;DHT22;2059;48.538;12.146;2023-04-25T00:48:31;9.30;97.60
4090;DHT22;2059;48.538;12.146;2023-04-25T00:53:34;9.60;97.20
4090;DHT22;2059;48.538;12.146;2023-04-25T00:58:37;9.80;96.80
4090;DHT22;2059;48.538;12.146;2023-04-25T01:03:40;9.40;97.00
4090;DHT22;2059;48.538;12.146;2023-04-25T01:08:43;9.30;97.60
4090;DHT22;2059;48.538;12.146;2023-04-25T01:13:45;9.10;97.80
4090;DHT22;2059;48.538;12.146;2023-04-25T01:18:47;9.30;97.60
4090;DHT22;2059;48.538;12.146;2023-04-25T01:23:52;8.90;98.20
4090;DHT22;2059;48.538;12.146;2023-04-25T01:28:55;9.10;98.20
4090;DHT22;2059;48.538;12.146;2023-04-25T01:33:57;9.10;98.00
4090;DHT22;2059;48.538;12.146;2023-04-25T01:39:01;8.50;99.20
4090;DHT22;2059;48.538;12.146;2023-04-25T01:44:03;8.70;99.30
4090;DHT22;2059;48.538;12.146;2023-04-25T01:49:06;8.70;99.40
4090;DHT22;2059;48.538;12.146;2023-04-25T01:54:10;8.50;99.70
4090;DHT22;2059;48.538;12.146;2023-04-25T01:59:12;8.80;99.60
4090;DHT22;2059;48.538;12.146;2023-04-25T02:04:14;8.70;99.70
4090;DHT22;2059;48.538;12.146;2023-04-25T02:09:17;8.60;99.90
4090;DHT22;2059;48.538;12.146;2023-04-25T02:14:19;8.80;99.60
4090;DHT22;2059;48.538;12.146;2023-04-25T02:19:21;8.90;99.50
4090;DHT22;2059;48.538;12.146;2023-04-25T02:24:24;8.90;99.40
4090;DHT22;2059;48.538;12.146;2023-04-25T02:29:25;8.80;99.70
4090;DHT22;2059;48.538;12.146;2023-04-25T02:34:27;8.80;99.90
4090;DHT22;2059;48.538;12.146;2023-04-25T02:39:30;8.80;99.70
4090;DHT22;2059;48.538;12.146;2023-04-25T02:44:32;8.70;99.80
4090;DHT22;2059;48.538;12.146;2023-04-25T02:49:34;8.80;99.80
4090;DHT22;2059;48.538;12.146;2023-04-25T02:54:37;8.30;99.90
4090;DHT22;2059;48.538;12.146;2023-04-25T02:59:39;8.30;99.90
4090;DHT22;2059;48.538;12.146;2023-04-25T03:04:41;8.80;99.90
4090;DHT22;2059;48.538;12.146;2023-04-25T03:09:44;8.90;99.90
4090;DHT22;2059;48.538;12.146;2023-04-25T03:14:46;8.70;99.90
4090;DHT22;2059;48.538;12.146;2023-04-25T03:19:48;8.90;99.90
4090;DHT22;2059;48.538;12.146;2023-04-25T03:24:51;8.90;99.90
4090;DHT22;2059;48.538;12.146;2023-04-25T03:29:53;8.80;99.90
4090;DHT22;2059;48.538;12.146;2023-04-25T03:34:54;8.90;99.90
4090;DHT22;2059;48.538;12.146;2023-04-25T03:39:57;8.80;99.90
4090;DHT22;2059;48.538;12.146;2023-04-25T03:44:59;8.40;99.90
4090;DHT22;2059;48.538;12.146;2023-04-25T03:50:01;8.50;99.90
4090;DHT22;2059;48.538;12.146;2023-04-25T03:55:05;8.70;99.90
4090;DHT22;2059;48.538;12.146;2023-04-25T04:00:08;8.80;99.90
4090;DHT22;2059;48.538;12.146;2023-04-25T04:05:10;8.70;99.90
4090;DHT22;2059;48.538;12.146;2023-04-25T04:10:13;8.50;99.90
4090;DHT22;2059;48.538;12.146;2023-04-25T04:15:15;8.50;99.90
4090;DHT22;2059;48.538;12.146;2023-04-25T04:20:16;8.70;99.90
4090;DHT22;2059;48.538;12.146;2023-04-25T04:25:20;8.80;99.90
4090;DHT22;2059;48.538;12.146;2023-04-25T04:30:22;8.60;99.90
4090;DHT22;2059;48.538;12.146;2023-04-25T04:35:25;8.60;99.90
4090;DHT22;2059;48.538;12.146;2023-04-25T04:40:31;9.00;99.90
4090;DHT22;2059;48.538;12.146;2023-04-25T04:45:33;9.10;99.90
4090;DHT22;2059;48.538;12.146;2023-04-25T04:50:35;9.10;99.90
4090;DHT22;2059;48.538;12.146;2023-04-25T04:55:39;9.30;99.90
4090;DHT22;2059;48.538;12.146;2023-04-25T05:00:41;9.20;99.90
4090;DHT22;2059;48.538;12.146;2023-04-25T05:05:43;9.10;99.90
4090;DHT22;2059;48.538;12.146;2023-04-25T05:10:50;9.00;99.90
4090;DHT22;2059;48.538;12.146;2023-04-25T05:15:52;9.20;99.90
4090;DHT22;2059;48.538;12.146;2023-04-25T05:20:54;9.50;99.90
4090;DHT22;2059;48.538;12.146;2023-04-25T05:25:57;9.40;99.90
4090;DHT22;2059;48.538;12.146;2023-04-25T05:30:59;9.70;99.90
4090;DHT22;2059;48.538;12.146;2023-04-25T05:36:01;9.50;99.90
4090;DHT22;2059;48.538;12.146;2023-04-25T05:41:04;9.50;99.90
4090;DHT22;2059;48.538;12.146;2023-04-25T05:46:06;9.50;99.90
4090;DHT22;2059;48.538;12.146;2023-04-25T05:51:09;9.50;99.90
4090;DHT22;2059;48.538;12.146;2023-04-25T05:56:12;9.70;99.90
4090;DHT22;2059;48.538;12.146;2023-04-25T06:01:15;9.50;99.90
4090;DHT22;2059;48.538;12.146;2023-04-25T06:06:17;9.70;99.90
4090;DHT22;2059;48.538;12.146;2023-04-25T06:11:20;10.50;99.10
4090;DHT22;2059;48.538;12.146;2023-04-25T06:16:22;10.70;98.40
4090;DHT22;2059;48.538;12.146;2023-04-25T06:21:26;10.90;98.10
4090;DHT22;2059;48.538;12.146;2023-04-25T06:26:29;11.10;98.00
4090;DHT22;2059;48.538;12.146;2023-04-25T06:31:31;11.20;98.10
4090;DHT22;2059;48.538;12.146;2023-04-25T06:36:34;11.10;97.90
4090;DHT22;2059;48.538;12.146;2023-04-25T06:41:38;11.10;97.80
4090;DHT22;2059;48.538;12.146;2023-04-25T06:46:40;10.30;98.70
4090;DHT22;2059;48.538;12.146;2023-04-25T06:51:42;10.70;98.90
4090;DHT22;2059;48.538;12.146;2023-04-25T06:56:46;11.10;98.30
4090;DHT22;2059;48.538;12.146;2023-04-25T07:01:48;12.20;97.00
4090;DHT22;2059;48.538;12.146;2023-04-25T07:06:50;12.20;95.90
4090;DHT22;2059;48.538;12.146;2023-04-25T07:11:53;12.20;96.40
4090;DHT22;2059;48.538;12.146;2023-04-25T07:16:55;13.10;95.20
4090;DHT22;2059;48.538;12.146;2023-04-25T07:21:57;13.40;94.30
4090;DHT22;2059;48.538;12.146;2023-04-25T07:27:00;13.00;93.30
4090;DHT22;2059;48.538;12.146;2023-04-25T07:32:03;13.00;93.80
4090;DHT22;2059;48.538;12.146;2023-04-25T07:37:05;13.20;92.80
4090;DHT22;2059;48.538;12.146;2023-04-25T07:42:08;13.50;92.60
4090;DHT22;2059;48.538;12.146;2023-04-25T07:47:10;13.60;93.30
4090;DHT22;2059;48.538;12.146;2023-04-25T07:52:12;13.10;93.50
4090;DHT22;2059;48.538;12.146;2023-04-25T07:57:15;12.10;95.40
4090;DHT22;2059;48.538;12.146;2023-04-25T08:02:17;12.10;95.40
4090;DHT22;2059;48.538;12.146;2023-04-25T08:07:19;12.30;94.80
4090;DHT22;2059;48.538;12.146;2023-04-25T08:12:22;11.80;95.70
4090;DHT22;2059;48.538;12.146;2023-04-25T08:17:25;12.20;96.20
4090;DHT22;2059;48.538;12.146;2023-04-25T08:22:28;12.60;94.60
4090;DHT22;2059;48.538;12.146;2023-04-25T08:27:31;12.80;94.70
4090;DHT22;2059;48.538;12.146;2023-04-25T08:32:33;12.80;94.30
4090;DHT22;2059;48.538;12.146;2023-04-25T08:37:35;12.60;94.20
4090;DHT22;2059;48.538;12.146;2023-04-25T08:42:41;13.50;93.70
4090;DHT22;2059;48.538;12.146;2023-04-25T08:47:45;14.20;93.20
4090;DHT22;2059;48.538;12.146;2023-04-25T08:52:50;15.20;91.50
4090;DHT22;2059;48.538;12.146;2023-04-25T08:57:57;15.50;91.10
4090;DHT22;2059;48.538;12.146;2023-04-25T09:03:01;15.30;90.30
4090;DHT22;2059;48.538;12.146;2023-04-25T09:08:03;15.20;90.40
4090;DHT22;2059;48.538;12.146;2023-04-25T09:13:07;15.00;91.50
4090;DHT22;2059;48.538;12.146;2023-04-25T09:18:10;15.10;89.90
4090;DHT22;2059;48.538;12.146;2023-04-25T09:23:14;15.20;90.00
4090;DHT22;2059;48.538;12.146;2023-04-25T09:28:23;14.70;89.40
4090;DHT22;2059;48.538;12.146;2023-04-25T09:33:29;13.80;91.20
4090;DHT22;2059;48.538;12.146;2023-04-25T09:38:32;14.90;89.20
4090;DHT22;2059;48.538;12.146;2023-04-25T09:43:36;13.20;92.40
4090;DHT22;2059;48.538;12.146;2023-04-25T09:48:38;11.70;94.20
4090;DHT22;2059;48.538;12.146;2023-04-25T09:53:41;11.80;95.10
4090;DHT22;2059;48.538;12.146;2023-04-25T09:58:44;11.90;94.80
4090;DHT22;2059;48.538;12.146;2023-04-25T10:03:54;12.80;96.40
4090;DHT22;2059;48.538;12.146;2023-04-25T10:08:58;14.20;95.40
4090;DHT22;2059;48.538;12.146;2023-04-25T10:14:02;14.80;95.40
4090;DHT22;2059;48.538;12.146;2023-04-25T10:19:04;14.60;94.00
4090;DHT22;2059;48.538;12.146;2023-04-25T10:24:06;14.00;94.10
4090;DHT22;2059;48.538;12.146;2023-04-25T10:29:10;13.40;93.80
4090;DHT22;2059;48.538;12.146;2023-04-25T10:34:12;12.60;96.00
4090;DHT22;2059;48.538;12.146;2023-04-25T10:39:21;12.10;97.10
4090;DHT22;2059;48.538;12.146;2023-04-25T10:44:28;13.70;96.00
4090;DHT22;2059;48.538;12.146;2023-04-25T10:49:32;13.90;95.00
4090;DHT22;2059;48.538;12.146;2023-04-25T10:54:33;14.00;94.40
4090;DHT22;2059;48.538;12.146;2023-04-25T10:59:40;15.50;93.00
4090;DHT22;2059;48.538;12.146;2023-04-25T11:04:42;14.70;93.50
4090;DHT22;2059;48.538;12.146;2023-04-25T11:09:45;14.50;94.50
4090;DHT22;2059;48.538;12.146;2023-04-25T11:14:49;14.50;93.50
4090;DHT22;2059;48.538;12.146;2023-04-25T11:19:51;14.90;92.40
4090;DHT22;2059;48.538;12.146;2023-04-25T11:24:53;15.50;92.70
4090;DHT22;2059;48.538;12.146;2023-04-25T11:29:56;16.70;90.80
4090;DHT22;2059;48.538;12.146;2023-04-25T11:35:01;16.90;90.00
4090;DHT22;2059;48.538;12.146;2023-04-25T11:40:05;17.20;87.00
4090;DHT22;2059;48.538;12.146;2023-04-25T11:45:12;17.40;86.90
4090;DHT22;2059;48.538;12.146;2023-04-25T11:50:15;17.20;88.00
4090;DHT22;2059;48.538;12.146;2023-04-25T11:55:18;17.20;88.40
4090;DHT22;2059;48.538;12.146;2023-04-25T12:00:23;17.40;88.80
4090;DHT22;2059;48.538;12.146;2023-04-25T12:05:28;16.90;87.00
4090;DHT22;2059;48.538;12.146;2023-04-25T12:10:30;16.20;89.30
4090;DHT22;2059;48.538;12.146;2023-04-25T12:15:33;16.60;88.90
4090;DHT22;2059;48.538;12.146;2023-04-25T12:20:35;16.60;88.50
4090;DHT22;2059;48.538;12.146;2023-04-25T12:25:38;16.70;88.40
4090;DHT22;2059;48.538;12.146;2023-04-25T12:30:56;16.10;86.70
4090;DHT22;2059;48.538;12.146;2023-04-25T12:35:59;16.00;88.20
4090;DHT22;2059;48.538;12.146;2023-04-25T12:41:04;16.10;89.10
4090;DHT22;2059;48.538;12.146;2023-04-25T12:46:07;16.00;88.20
4090;DHT22;2059;48.538;12.146;2023-04-25T12:51:10;15.90;88.20
4090;DHT22;2059;48.538;12.146;2023-04-25T12:56:12;16.40;85.20
4090;DHT22;2059;48.538;12.146;2023-04-25T13:01:15;16.90;81.40
4090;DHT22;2059;48.538;12.146;2023-04-25T13:06:18;16.40;82.10
4090;DHT22;2059;48.538;12.146;2023-04-25T13:11:20;16.70;80.50
4090;DHT22;2059;48.538;12.146;2023-04-25T13:16:23;15.30;83.10
4090;DHT22;2059;48.538;12.146;2023-04-25T13:21:25;15.20;84.00
4090;DHT22;2059;48.538;12.146;2023-04-25T13:26:27;15.70;82.50
4090;DHT22;2059;48.538;12.146;2023-04-25T13:31:31;14.60;83.60
4090;DHT22;2059;48.538;12.146;2023-04-25T13:36:32;13.70;86.70
4090;DHT22;2059;48.538;12.146;2023-04-25T13:41:34;13.60;86.40
4090;DHT22;2059;48.538;12.146;2023-04-25T13:46:37;12.70;87.50
4090;DHT22;2059;48.538;12.146;2023-04-25T13:51:39;12.30;92.00
4090;DHT22;2059;48.538;12.146;2023-04-25T13:56:42;11.70;93.50
4090;DHT22;2059;48.538;12.146;2023-04-25T14:01:45;12.00;95.00
4090;DHT22;2059;48.538;12.146;2023-04-25T14:06:47;12.10;93.40
4090;DHT22;2059;48.538;12.146;2023-04-25T14:11:49;11.50;94.40
4090;DHT22;2059;48.538;12.146;2023-04-25T14:16:52;10.90;97.10
4090;DHT22;2059;48.538;12.146;2023-04-25T14:21:55;10.50;99.10
4090;DHT22;2059;48.538;12.146;2023-04-25T14:26:57;10.50;99.90
4090;DHT22;2059;48.538;12.146;2023-04-25T14:32:00;10.40;99.90
4090;DHT22;2059;48.538;12.146;2023-04-25T14:37:02;10.20;99.90
4090;DHT22;2059;48.538;12.146;2023-04-25T14:42:04;10.30;99.90
4090;DHT22;2059;48.538;12.146;2023-04-25T14:47:07;10.40;99.90
4090;DHT22;2059;48.538;12.146;2023-04-25T14:52:09;10.80;99.90
4090;DHT22;2059;48.538;12.146;2023-04-25T14:57:10;10.80;99.90
4090;DHT22;2059;48.538;12.146;2023-04-25T15:02:14;11.40;99.90
4090;DHT22;2059;48.538;12.146;2023-04-25T15:07:15;11.00;99.90
4090;DHT22;2059;48.538;12.146;2023-04-25T15:12:17;10.90;99.90
4090;DHT22;2059;48.538;12.146;2023-04-25T15:17:20;11.10;99.90
4090;DHT22;2059;48.538;12.146;2023-04-25T15:22:22;11.20;99.90
4090;DHT22;2059;48.538;12.146;2023-04-25T15:27:24;11.30;99.90
4090;DHT22;2059;48.538;12.146;2023-04-25T15:32:28;11.10;99.90
4090;DHT22;2059;48.538;12.146;2023-04-25T15:37:30;10.60;99.90
4090;DHT22;2059;48.538;12.146;2023-04-25T15:42:32;10.50;99.90
4090;DHT22;2059;48.538;12.146;2023-04-25T15:47:37;10.60;99.90
4090;DHT22;2059;48.538;12.146;2023-04-25T15:52:39;10.60;99.90
4090;DHT22;2059;48.538;12.146;2023-04-25T15:57:41;11.20;99.90
4090;DHT22;2059;48.538;12.146;2023-04-25T16:02:45;10.90;99.90
4090;DHT22;2059;48.538;12.146;2023-04-25T16:07:48;10.70;99.90
4090;DHT22;2059;48.538;12.146;2023-04-25T16:12:49;10.90;99.90
4090;DHT22;2059;48.538;12.146;2023-04-25T16:17:53;11.10;99.90
4090;DHT22;2059;48.538;12.146;2023-04-25T16:22:54;11.00;99.90
4090;DHT22;2059;48.538;12.146;2023-04-25T16:27:56;10.60;99.90
4090;DHT22;2059;48.538;12.146;2023-04-25T16:32:59;11.60;99.90
4090;DHT22;2059;48.538;12.146;2023-04-25T16:38:01;17.10;93.40
4090;DHT22;2059;48.538;12.146;2023-04-25T16:43:03;14.80;94.50
4090;DHT22;2059;48.538;12.146;2023-04-25T16:48:06;14.80;93.80
4090;DHT22;2059;48.538;12.146;2023-04-25T16:53:07;14.90;93.50
4090;DHT22;2059;48.538;12.146;2023-04-25T16:58:10;13.30;95.30
4090;DHT22;2059;48.538;12.146;2023-04-25T17:03:13;12.40;96.50
4090;DHT22;2059;48.538;12.146;2023-04-25T17:08:15;11.70;97.40
4090;DHT22;2059;48.538;12.146;2023-04-25T17:13:17;11.40;98.50
4090;DHT22;2059;48.538;12.146;2023-04-25T17:18:21;11.10;98.90
4090;DHT22;2059;48.538;12.146;2023-04-25T17:23:23;11.10;99.40
4090;DHT22;2059;48.538;12.146;2023-04-25T17:28:25;10.90;99.50
4090;DHT22;2059;48.538;12.146;2023-04-25T17:33:28;10.80;99.90
4090;DHT22;2059;48.538;12.146;2023-04-25T17:38:30;10.50;99.90
4090;DHT22;2059;48.538;12.146;2023-04-25T17:43:32;10.70;99.90
4090;DHT22;2059;48.538;12.146;2023-04-25T17:48:35;10.50;99.90
4090;DHT22;2059;48.538;12.146;2023-04-25T17:53:37;10.50;99.90
4090;DHT22;2059;48.538;12.146;2023-04-25T17:58:38;10.50;99.90
4090;DHT22;2059;48.538;12.146;2023-04-25T18:03:42;10.40;99.90
4090;DHT22;2059;48.538;12.146;2023-04-25T18:08:47;10.20;99.90
4090;DHT22;2059;48.538;12.146;2023-04-25T18:13:49;9.70;99.90
4090;DHT22;2059;48.538;12.146;2023-04-25T18:18:52;9.70;99.90
4090;DHT22;2059;48.538;12.146;2023-04-25T18:23:54;9.70;99.90
4090;DHT22;2059;48.538;12.146;2023-04-25T18:28:56;9.70;99.90
4090;DHT22;2059;48.538;12.146;2023-04-25T18:33:59;9.50;99.90
4090;DHT22;2059;48.538;12.146;2023-04-25T18:39:02;9.50;99.90
4090;DHT22;2059;48.538;12.146;2023-04-25T18:44:05;9.70;99.90
4090;DHT22;2059;48.538;12.146;2023-04-25T18:49:09;9.70;99.90
4090;DHT22;2059;48.538;12.146;2023-04-25T18:54:10;9.60;99.90
4090;DHT22;2059;48.538;12.146;2023-04-25T18:59:12;9.70;99.90
4090;DHT22;2059;48.538;12.146;2023-04-25T19:04:16;9.80;99.90
4090;DHT22;2059;48.538;12.146;2023-04-25T19:09:18;9.60;99.90
4090;DHT22;2059;48.538;12.146;2023-04-25T19:14:20;9.40;99.90
4090;DHT22;2059;48.538;12.146;2023-04-25T19:19:23;9.30;99.90
4090;DHT22;2059;48.538;12.146;2023-04-25T19:24:26;9.40;99.90
4090;DHT22;2059;48.538;12.146;2023-04-25T19:29:28;9.10;99.90
4090;DHT22;2059;48.538;12.146;2023-04-25T19:34:33;9.10;99.90
4090;DHT22;2059;48.538;12.146;2023-04-25T19:39:35;9.10;99.90
4090;DHT22;2059;48.538;12.146;2023-04-25T19:44:37;9.10;99.90
4090;DHT22;2059;48.538;12.146;2023-04-25T19:49:40;9.00;99.90
4090;DHT22;2059;48.538;12.146;2023-04-25T19:54:42;9.20;99.90
4090;DHT22;2059;48.538;12.146;2023-04-25T19:59:46;9.30;99.90
4090;DHT22;2059;48.538;12.146;2023-04-25T20:04:50;8.80;99.90
4090;DHT22;2059;48.538;12.146;2023-04-25T20:09:52;9.00;99.90
4090;DHT22;2059;48.538;12.146;2023-04-25T20:14:54;8.90;99.90
4090;DHT22;2059;48.538;12.146;2023-04-25T20:19:57;8.80;99.90
4090;DHT22;2059;48.538;12.146;2023-04-25T20:24:59;8.90;99.90
4090;DHT22;2059;48.538;12.146;2023-04-25T20:30:00;9.00;99.90
4090;DHT22;2059;48.538;12.146;2023-04-25T20:35:08;8.90;99.90
4090;DHT22;2059;48.538;12.146;2023-04-25T20:40:10;8.70;99.90
4090;DHT22;2059;48.538;12.146;2023-04-25T20:45:12;8.80;99.90
4090;DHT22;2059;48.538;12.146;2023-04-25T20:50:16;8.60;99.90
4090;DHT22;2059;48.538;12.146;2023-04-25T20:55:18;8.60;99.90
4090;DHT22;2059;48.538;12.146;2023-04-25T21:00:20;8.60;99.90
4090;DHT22;2059;48.538;12.146;2023-04-25T21:05:29;8.70;99.90
4090;DHT22;2059;48.538;12.146;2023-04-25T21:10:31;8.70;99.90
4090;DHT22;2059;48.538;12.146;2023-04-25T21:15:33;8.50;99.90
4090;DHT22;2059;48.538;12.146;2023-04-25T21:20:36;8.50;99.90
4090;DHT22;2059;48.538;12.146;2023-04-25T21:25:39;8.40;99.90
4090;DHT22;2059;48.538;12.146;2023-04-25T21:30:42;8.60;99.90
4090;DHT22;2059;48.538;12.146;2023-04-25T21:35:46;8.90;99.90
4090;DHT22;2059;48.538;12.146;2023-04-25T21:40:48;9.10;99.90
4090;DHT22;2059;48.538;12.146;2023-04-25T21:45:50;9.10;99.90
4090;DHT22;2059;48.538;12.146;2023-04-25T21:50:54;8.70;99.90
4090;DHT22;2059;48.538;12.146;2023-04-25T21:55:56;8.80;99.90
4090;DHT22;2059;48.538;12.146;2023-04-25T22:00:58;8.90;99.90
4090;DHT22;2059;48.538;12.146;2023-04-25T22:06:01;9.10;99.90
4090;DHT22;2059;48.538;12.146;2023-04-25T22:11:03;9.00;99.90
4090;DHT22;2059;48.538;12.146;2023-04-25T22:16:06;8.90;99.90
4090;DHT22;2059;48.538;12.146;2023-04-25T22:21:12;8.90;99.90
4090;DHT22;2059;48.538;12.146;2023-04-25T22:26:14;9.10;99.90
4090;DHT22;2059;48.538;12.146;2023-04-25T22:31:16;9.00;99.90
4090;DHT22;2059;48.538;12.146;2023-04-25T22:36:19;8.80;99.90
4090;DHT22;2059;48.538;12.146;2023-04-25T22:41:23;9.00;99.90
4090;DHT22;2059;48.538;12.146;2023-04-25T22:46:25;8.80;99.90
4090;DHT22;2059;48.538;12.146;2023-04-25T22:51:28;8.90;99.90
4090;DHT22;2059;48.538;12.146;2023-04-25T22:56:30;8.70;99.90
4090;DHT22;2059;48.538;12.146;2023-04-25T23:01:32;8.90;99.90
4090;DHT22;2059;48.538;12.146;2023-04-25T23:06:36;8.50;99.90
4090;DHT22;2059;48.538;12.146;2023-04-25T23:11:40;8.60;99.90
4090;DHT22;2059;48.538;12.146;2023-04-25T23:16:42;8.70;99.90
4090;DHT22;2059;48.538;12.146;2023-04-25T23:21:46;9.20;99.90
4090;DHT22;2059;48.538;12.146;2023-04-25T23:26:47;8.90;99.90
4090;DHT22;2059;48.538;12.146;2023-04-25T23:31:49;8.40;99.90
4090;DHT22;2059;48.538;12.146;2023-04-25T23:36:52;8.20;99.90
4090;DHT22;2059;48.538;12.146;2023-04-25T23:41:54;8.50;99.90
4090;DHT22;2059;48.538;12.146;2023-04-25T23:46:57;8.60;99.90
4090;DHT22;2059;48.538;12.146;2023-04-25T23:52:00;8.90;99.90
4090;DHT22;2059;48.538;12.146;2023-04-25T23:57:03;8.80;99.90
